Time;durP1;ratioP1;P1;durP2;ratioP2;P2;SDS_P1;SDS_P2;PMS_P1;PMS_P2;Temp;Humidity;BMP_temperature;BMP_pressure;BME280_temperature;BME280_humidity;BME280_pressure;Samples;Min_cycle;Max_cycle;Signal;HPM_P1;HPM_P2
2023/01/18 00:02:03;;;;;;;66.70;38.60;;;;;;;1.28;90.52;97943.08;103202;1257;96448;-84
2023/01/18 00:04:30;;;;;;;68.10;39.60;;;;;;;1.28;90.52;97945.47;103051;1263;109905;-84
2023/01/18 00:06:59;;;;;;;64.10;38.40;;;;;;;1.28;90.80;97941.55;103089;1262;138627;-84
2023/01/18 00:09:26;;;;;;;68.80;39.60;;;;;;;1.26;90.70;97941.77;103061;1258;96541;-83
2023/01/18 00:11:53;;;;;;;68.40;38.80;;;;;;;1.25;90.73;97936.80;103023;1260;137897;-82
2023/01/18 00:14:21;;;;;;;68.40;39.30;;;;;;;1.25;90.80;97936.29;103656;1260;96463;-82
2023/01/18 00:16:48;;;;;;;66.90;38.50;;;;;;;1.25;90.74;97936.64;103191;1257;109856;-84
2023/01/18 00:19:16;;;;;;;68.80;41.80;;;;;;;1.26;90.94;97936.96;102988;1258;138071;-84
2023/01/18 00:21:43;;;;;;;65.40;39.70;;;;;;;1.27;91.06;97938.83;103170;1257;96496;-84
2023/01/18 00:24:14;;;;;;;69.10;40.10;;;;;;;1.27;90.94;97935.58;103010;1260;137846;-84
2023/01/18 00:26:43;;;;;;;68.50;40.20;;;;;;;1.28;91.10;97931.96;103043;1263;96442;-85
2023/01/18 00:29:10;;;;;;;67.80;40.30;;;;;;;1.28;91.26;97929.04;103013;1260;138061;-85
2023/01/18 00:31:38;;;;;;;68.80;41.20;;;;;;;1.27;91.26;97924.61;102173;1257;1003287;-83
2023/01/18 00:34:05;;;;;;;67.70;39.90;;;;;;;1.28;91.37;97921.34;102972;1258;96993;-84
2023/01/18 00:36:32;;;;;;;62.60;38.30;;;;;;;1.28;91.43;97921.66;102993;1260;137864;-84
2023/01/18 00:39:00;;;;;;;67.20;37.90;;;;;;;1.29;91.61;97920.45;103074;1258;96522;-86
2023/01/18 00:41:27;;;;;;;59.50;37.20;;;;;;;1.28;91.77;97919.27;103026;1257;138103;-85
2023/01/18 00:43:55;;;;;;;62.60;37.20;;;;;;;1.29;91.93;97915.81;102461;1257;1003075;-84
2023/01/18 00:46:24;;;;;;;59.80;34.80;;;;;;;1.30;92.17;97913.23;102335;1261;1002892;-84
2023/01/18 00:48:52;;;;;;;60.50;35.40;;;;;;;1.30;92.18;97909.98;103027;1257;138840;-84
2023/01/18 00:51:21;;;;;;;60.20;36.00;;;;;;;1.32;92.42;97908.21;103097;1258;96373;-84
2023/01/18 00:53:49;;;;;;;57.50;35.80;;;;;;;1.33;92.37;97904.40;103183;1260;138976;-84
2023/01/18 00:56:18;;;;;;;62.50;36.10;;;;;;;1.35;92.43;97899.52;103134;1260;107376;-83
2023/01/18 00:58:46;;;;;;;62.30;36.40;;;;;;;1.38;92.54;97900.61;103487;1256;97352;-83
2023/01/18 01:01:13;;;;;;;64.80;37.70;;;;;;;1.41;92.54;97893.34;103274;1257;138462;-83
2023/01/18 01:06:44;;;;;;;70.00;40.70;;;;;;;1.46;92.07;97884.09;102358;1258;1002673;-81
2023/01/18 01:09:13;;;;;;;63.70;36.80;;;;;;;1.49;91.84;97882.63;103108;1260;107655;-82
2023/01/18 01:12:31;;;;;;;58.10;35.90;;;;;;;1.51;91.70;97881.00;103032;1257;138246;-82
2023/01/18 01:28:14;;;;;;;56.60;34.10;;;;;;;1.61;91.47;97860.28;103161;1260;107083;-82
2023/01/18 01:30:43;;;;;;;56.60;33.20;;;;;;;1.63;91.35;97858.16;103019;1260;139756;-81
2023/01/18 01:33:10;;;;;;;54.60;31.70;;;;;;;1.67;91.43;97857.34;103194;1261;109406;-81
2023/01/18 01:35:38;;;;;;;59.60;33.50;;;;;;;1.70;91.30;97856.05;103020;1257;138523;-81
2023/01/18 01:38:05;;;;;;;58.80;32.90;;;;;;;1.72;91.35;97854.60;103164;1260;96467;-80
2023/01/18 01:40:32;;;;;;;55.50;32.50;;;;;;;1.76;91.52;97852.91;103153;1260;108080;-80
2023/01/18 01:42:59;;;;;;;51.30;31.50;;;;;;;1.78;91.26;97850.09;103074;1257;139305;-80
2023/01/18 01:45:29;;;;;;;52.40;31.80;;;;;;;1.82;91.36;97853.24;103234;1258;109831;-80
2023/01/18 01:47:58;;;;;;;58.20;32.80;;;;;;;1.85;91.52;97856.04;103059;1260;139077;-81
2023/01/18 01:50:29;;;;;;;56.60;33.50;;;;;;;1.87;91.26;97861.64;103338;1257;96553;-80
2023/01/18 01:52:58;;;;;;;53.20;32.60;;;;;;;1.88;91.26;97862.44;103286;1260;108295;-80
2023/01/18 01:55:30;;;;;;;54.50;33.70;;;;;;;1.90;90.98;97864.27;103165;1257;138380;-81
2023/01/18 01:58:01;;;;;;;62.40;34.60;;;;;;;1.90;91.03;97864.59;103082;1261;109591;-81
2023/01/18 02:00:29;;;;;;;56.70;33.10;;;;;;;1.89;90.73;97860.02;102183;1257;1002933;-80
2023/01/18 02:03:00;;;;;;;55.60;33.00;;;;;;;1.87;90.59;97850.30;102791;1258;1002888;-80
2023/01/18 02:05:29;;;;;;;54.20;32.70;;;;;;;1.86;90.46;97852.23;103278;1257;138488;-80
2023/01/18 02:08:00;;;;;;;54.60;33.10;;;;;;;1.87;90.60;97853.08;103162;1260;96473;-79
2023/01/18 02:10:28;;;;;;;56.00;34.50;;;;;;;1.87;90.52;97860.59;103126;1260;109263;-80
2023/01/18 02:12:56;;;;;;;54.10;32.80;;;;;;;1.87;90.45;97863.15;103439;1260;138553;-79
2023/01/18 02:15:31;;;;;;;60.30;34.30;;;;;;;1.86;90.31;97860.82;103135;1257;98142;-79
2023/01/18 02:18:16;;;;;;;56.50;33.80;;;;;;;1.83;90.17;97863.82;103226;1258;334793;-80
2023/01/18 02:21:16;;;;;;;57.70;33.70;;;;;;;1.78;90.07;97868.41;103089;1257;96483;-81
2023/01/18 02:24:27;;;;;;;53.10;32.50;;;;;;;1.71;89.99;97874.50;102517;1256;1002927;-81
2023/01/18 02:27:11;;;;;;;52.80;32.80;;;;;;;1.65;90.17;97864.80;102326;1260;1002724;-82
2023/01/18 02:30:02;;;;;;;58.50;34.80;;;;;;;1.62;90.45;97861.12;103018;1257;139486;-82
2023/01/18 02:36:11;;;;;;;53.50;32.40;;;;;;;1.61;90.72;97864.40;103016;1256;137913;-80
2023/01/18 02:38:43;;;;;;;58.80;33.60;;;;;;;1.61;90.76;97857.55;103141;1256;108990;-80
2023/01/18 02:41:18;;;;;;;59.40;34.20;;;;;;;1.62;90.80;97861.63;103037;1256;138647;-79
2023/01/18 02:46:37;;;;;;;55.90;32.50;;;;;;;1.63;90.85;97855.60;103107;1261;107019;-81
2023/01/18 02:49:08;;;;;;;60.90;32.80;;;;;;;1.64;90.93;97858.65;102244;1260;1003215;-80
2023/01/18 02:51:36;;;;;;;59.20;33.30;;;;;;;1.64;90.74;97858.82;103118;1257;109189;-81
2023/01/18 02:54:06;;;;;;;53.50;32.10;;;;;;;1.64;90.94;97863.46;102936;1256;138106;-80
2023/01/18 02:56:38;;;;;;;58.90;33.80;;;;;;;1.63;90.86;97860.07;102355;1260;1003390;-80
2023/01/18 02:59:12;;;;;;;54.50;31.80;;;;;;;1.61;90.86;97855.81;102956;1260;138436;-80
2023/01/18 03:01:44;;;;;;;52.10;31.00;;;;;;;1.61;90.92;97854.29;103143;1260;96474;-80
2023/01/18 03:04:16;;;;;;;50.20;29.70;;;;;;;1.59;91.02;97852.14;103031;1260;110079;-80
2023/01/18 03:06:47;;;;;;;55.20;31.20;;;;;;;1.56;90.89;97849.50;102993;1256;138016;-80
2023/01/18 03:09:17;;;;;;;49.80;30.10;;;;;;;1.55;90.91;97845.44;102388;1256;1003356;-79
2023/01/18 03:11:53;;;;;;;48.20;29.10;;;;;;;1.54;90.92;97836.22;102142;1260;1003247;-79
2023/01/18 03:14:31;;;;;;;48.80;29.10;;;;;;;1.53;91.10;97833.00;103124;1258;96362;-79
2023/01/18 03:17:05;;;;;;;50.50;30.10;;;;;;;1.54;91.22;97834.70;103855;1258;108856;-79
2023/01/18 03:25:19;;;;;;;43.50;27.00;;;;;;;1.56;91.10;97820.21;102203;1257;1002869;-78
2023/01/18 03:36:16;;;;;;;45.00;26.20;;;;;;;1.63;91.16;97798.05;102876;1261;137940;-79
2023/01/18 03:38:45;;;;;;;44.30;25.70;;;;;;;1.65;91.03;97786.34;103027;1257;108097;-79
2023/01/18 03:41:14;;;;;;;42.50;25.90;;;;;;;1.66;91.04;97782.70;102980;1260;138746;-79
2023/01/18 03:43:44;;;;;;;43.90;26.40;;;;;;;1.67;91.03;97775.80;102302;1260;1002584;-79
2023/01/18 03:46:15;;;;;;;49.80;26.60;;;;;;;1.70;91.04;97772.30;102431;1257;1002989;-79
2023/01/18 03:48:43;;;;;;;46.60;25.80;;;;;;;1.71;91.04;97764.34;102862;1256;138097;-79
2023/01/18 03:51:19;;;;;;;43.70;25.20;;;;;;;1.72;90.95;97763.62;103031;1257;108072;-79
2023/01/18 03:53:55;;;;;;;39.90;24.40;;;;;;;1.72;90.87;97760.52;102953;1256;138156;-79
2023/01/18 03:56:26;;;;;;;43.70;25.40;;;;;;;1.73;90.86;97747.83;103028;1261;110153;-78
2023/01/18 03:58:57;;;;;;;43.00;24.60;;;;;;;1.74;90.90;97744.89;102190;1256;1003538;-78
2023/01/18 04:01:25;;;;;;;41.40;25.40;;;;;;;1.74;90.95;97736.64;102979;1260;139409;-78
2023/01/18 04:03:53;;;;;;;39.40;24.30;;;;;;;1.75;90.85;97732.52;103031;1260;108246;-78
2023/01/18 04:06:22;;;;;;;41.20;24.40;;;;;;;1.77;90.89;97726.11;102941;1256;138129;-78
2023/01/18 04:08:49;;;;;;;41.00;24.50;;;;;;;1.77;90.91;97719.23;103065;1256;108253;-78
2023/01/18 04:11:16;;;;;;;38.80;24.00;;;;;;;1.78;90.69;97713.73;102943;1260;139389;-78
2023/01/18 04:13:43;;;;;;;41.70;24.60;;;;;;;1.77;90.81;97702.27;103113;1258;96387;-79
2023/01/18 04:16:10;;;;;;;41.60;23.90;;;;;;;1.78;90.89;97698.13;103044;1256;107220;-79
2023/01/18 04:18:37;;;;;;;40.40;25.00;;;;;;;1.79;90.86;97699.27;102937;1260;138051;-79
2023/01/18 04:21:05;;;;;;;43.10;24.50;;;;;;;1.79;90.90;97699.46;103053;1256;109989;-79
2023/01/18 04:23:32;;;;;;;41.70;24.80;;;;;;;1.80;90.89;97704.58;102957;1256;140106;-81
2023/01/18 04:25:59;;;;;;;42.90;25.10;;;;;;;1.80;90.90;97697.90;102336;1256;1003310;-79
2023/01/18 04:28:26;;;;;;;47.00;26.10;;;;;;;1.81;90.89;97704.05;103061;1260;107244;-79
2023/01/18 04:30:55;;;;;;;45.70;25.70;;;;;;;1.80;90.92;97710.40;102879;1256;138388;-79
2023/01/18 04:33:25;;;;;;;46.40;26.60;;;;;;;1.80;91.00;97708.36;103106;1260;109187;-79
2023/01/18 04:35:54;;;;;;;50.80;26.40;;;;;;;1.79;91.03;97708.70;102998;1256;138019;-79
2023/01/18 04:38:21;;;;;;;47.60;25.50;;;;;;;1.79;91.06;97713.17;103433;1256;97042;-78
2023/01/18 04:40:48;;;;;;;47.10;25.10;;;;;;;1.78;91.17;97706.86;103496;1255;108170;-78
2023/01/18 04:43:16;;;;;;;48.00;26.70;;;;;;;1.79;91.21;97709.06;102939;1256;137952;-79
2023/01/18 04:45:45;;;;;;;44.90;25.50;;;;;;;1.80;91.40;97710.08;103084;1260;109509;-79
2023/01/18 04:48:12;;;;;;;47.00;26.60;;;;;;;1.81;91.40;97707.63;102975;1260;138119;-79
2023/01/18 04:50:45;;;;;;;51.70;27.00;;;;;;;1.81;91.29;97704.38;102425;1256;1003426;-81
2023/01/18 04:53:12;;;;;;;51.70;27.30;;;;;;;1.81;91.49;97705.58;103012;1256;139465;-77
2023/01/18 04:55:39;;;;;;;45.60;25.90;;;;;;;1.84;91.68;97707.52;103058;1259;96545;-79
2023/01/18 04:58:06;;;;;;;46.60;25.90;;;;;;;1.87;91.78;97710.99;103140;1259;110877;-79
2023/01/18 05:00:33;;;;;;;48.40;25.90;;;;;;;1.90;91.73;97707.29;102915;1260;139387;-79
2023/01/18 05:03:01;;;;;;;51.20;26.90;;;;;;;1.93;91.73;97712.15;103056;1260;96452;-80
2023/01/18 05:05:28;;;;;;;49.30;26.30;;;;;;;1.95;91.65;97711.72;103037;1256;138151;-80
2023/01/18 05:07:55;;;;;;;45.20;25.40;;;;;;;1.98;91.61;97713.52;103026;1256;96488;-79
2023/01/18 05:10:22;;;;;;;47.60;26.20;;;;;;;1.99;91.70;97712.96;103049;1260;109548;-80
2023/01/18 05:12:49;;;;;;;44.60;24.60;;;;;;;2.00;91.52;97712.41;102154;1255;1002974;-80
2023/01/18 05:15:18;;;;;;;49.40;26.10;;;;;;;2.01;91.51;97714.60;103087;1256;96342;-80
2023/01/18 05:17:45;;;;;;;47.10;25.60;;;;;;;2.01;91.44;97714.42;102839;1260;138008;-80
2023/01/18 05:20:14;;;;;;;45.80;25.60;;;;;;;2.01;91.45;97710.98;103018;1260;96476;-80
2023/01/18 05:22:41;;;;;;;51.00;26.70;;;;;;;2.02;91.66;97707.35;103040;1256;109253;-80
2023/01/18 05:25:11;;;;;;;51.30;27.40;;;;;;;2.01;91.60;97703.44;102882;1260;138688;-80
2023/01/18 05:27:38;;;;;;;52.70;26.80;;;;;;;2.00;91.62;97703.50;103013;1256;96468;-80
2023/01/18 05:30:06;;;;;;;48.40;26.70;;;;;;;1.98;91.72;97698.94;102936;1260;138019;-80
2023/01/18 05:32:36;;;;;;;53.80;27.20;;;;;;;1.97;91.69;97706.15;103171;1257;96544;-80
2023/01/18 05:35:03;;;;;;;50.00;26.30;;;;;;;1.95;91.81;97703.34;103106;1256;109389;-80
2023/01/18 05:37:30;;;;;;;52.40;26.90;;;;;;;1.93;91.86;97702.72;102976;1257;107187;-80
2023/01/18 05:39:58;;;;;;;51.90;27.20;;;;;;;1.92;91.99;97698.14;102981;1257;96346;-81
2023/01/18 05:42:25;;;;;;;54.70;27.30;;;;;;;1.91;91.92;97689.09;102892;1257;137920;-81
2023/01/18 05:44:52;;;;;;;50.10;25.80;;;;;;;1.90;92.08;97676.98;102980;1258;96371;-81
2023/01/18 05:47:20;;;;;;;54.20;26.40;;;;;;;1.89;92.15;97667.23;102371;1260;1002512;-81
2023/01/18 05:49:48;;;;;;;51.90;26.70;;;;;;;1.89;92.31;97663.13;103361;1256;107890;-81
2023/01/18 05:52:15;;;;;;;47.70;24.90;;;;;;;1.88;92.28;97659.73;102882;1258;96552;-81
2023/01/18 05:54:43;;;;;;;50.00;24.00;;;;;;;1.86;92.20;97650.89;102772;1257;1003149;-80
2023/01/18 05:57:10;;;;;;;48.40;24.40;;;;;;;1.86;92.37;97641.86;102208;1256;1002808;-80
2023/01/18 05:59:37;;;;;;;46.10;23.50;;;;;;;1.84;92.36;97634.54;102931;1256;138294;-80
2023/01/18 06:02:05;;;;;;;54.30;25.10;;;;;;;1.83;92.34;97627.55;103053;1256;108829;-80
2023/01/18 06:04:32;;;;;;;53.20;24.80;;;;;;;1.82;92.47;97625.36;103061;1260;96996;-80
2023/01/18 06:06:59;;;;;;;47.90;23.40;;;;;;;1.80;92.66;97614.12;102911;1257;137885;-80
2023/01/18 06:09:28;;;;;;;42.60;22.50;;;;;;;1.78;92.43;97609.05;103054;1259;96583;-79
2023/01/18 06:11:56;;;;;;;42.80;22.20;;;;;;;1.78;92.63;97606.31;102863;1256;138985;-80
2023/01/18 06:14:23;;;;;;;40.50;20.50;;;;;;;1.78;92.65;97607.52;103035;1259;107857;-80
2023/01/18 06:16:50;;;;;;;44.80;20.90;;;;;;;1.77;92.87;97603.77;103037;1255;96481;-81
2023/01/18 06:19:17;;;;;;;40.30;20.90;;;;;;;1.76;92.95;97599.86;102218;1256;1002773;-81
2023/01/18 06:21:45;;;;;;;36.80;19.00;;;;;;;1.75;93.00;97600.44;103055;1255;96560;-81
2023/01/18 06:24:13;;;;;;;40.10;19.00;;;;;;;1.74;92.90;97596.70;102945;1260;138857;-81
2023/01/18 06:26:40;;;;;;;38.10;18.00;;;;;;;1.74;93.04;97590.03;102928;1256;107455;-81
2023/01/18 06:29:08;;;;;;;33.60;17.00;;;;;;;1.72;93.34;97584.96;102996;1256;96466;-80
2023/01/18 06:31:35;;;;;;;40.70;18.80;;;;;;;1.71;93.15;97571.82;102870;1260;107079;-81
2023/01/18 06:34:08;;;;;;;38.20;18.30;;;;;;;1.72;93.27;97559.27;102177;1256;1003815;-80
2023/01/18 06:36:35;;;;;;;39.40;18.50;;;;;;;1.72;93.29;97539.92;102904;1260;139347;-81
2023/01/18 06:39:02;;;;;;;35.70;19.00;;;;;;;1.72;93.43;97532.38;102905;1260;107370;-81
2023/01/18 06:41:29;;;;;;;37.70;18.50;;;;;;;1.71;93.48;97523.83;102819;1260;139323;-80
2023/01/18 06:43:56;;;;;;;37.50;19.30;;;;;;;1.72;93.59;97523.66;102926;1256;108692;-80
2023/01/18 06:46:24;;;;;;;32.50;17.30;;;;;;;1.72;93.56;97528.10;102942;1256;97293;-80
2023/01/18 06:48:51;;;;;;;32.60;16.80;;;;;;;1.71;93.53;97554.52;102028;1255;1002840;-80
2023/01/18 06:51:19;;;;;;;30.70;17.00;;;;;;;1.72;93.58;97586.51;103042;1256;106960;-80
2023/01/18 06:53:46;;;;;;;30.20;15.30;;;;;;;1.72;93.83;97598.99;103424;1255;139562;-80
2023/01/18 06:56:13;;;;;;;29.00;15.30;;;;;;;1.72;93.66;97585.80;102937;1260;107956;-80
2023/01/18 06:58:40;;;;;;;30.50;15.10;;;;;;;1.75;93.69;97576.80;103004;1258;96542;-79
2023/01/18 07:01:08;;;;;;;26.40;13.90;;;;;;;1.78;93.77;97575.13;102850;1260;138456;-80
2023/01/18 07:03:37;;;;;;;30.30;13.90;;;;;;;1.80;93.85;97571.80;102972;1257;107014;-79
2023/01/18 07:06:06;;;;;;;28.00;14.30;;;;;;;1.83;93.88;97560.91;102849;1256;138030;-80
2023/01/18 07:08:34;;;;;;;31.70;15.00;;;;;;;1.86;93.87;97541.95;102234;1260;1003459;-79
2023/01/18 07:11:06;;;;;;;30.60;15.40;;;;;;;1.89;93.88;97530.33;102999;1257;97155;-78
2023/01/18 07:13:34;;;;;;;27.90;14.50;;;;;;;1.91;93.64;97542.42;103177;1257;110067;-78
2023/01/18 07:16:02;;;;;;;27.90;14.00;;;;;;;1.92;93.75;97542.38;102945;1260;107275;-79
2023/01/18 07:18:30;;;;;;;26.80;14.10;;;;;;;1.91;93.49;97544.98;102127;1260;1002979;-79
2023/01/18 07:21:01;;;;;;;29.30;13.80;;;;;;;1.91;93.58;97553.20;102911;1256;107271;-80
2023/01/18 07:23:30;;;;;;;25.80;13.60;;;;;;;1.91;93.53;97561.41;102823;1255;138353;-79
2023/01/18 07:26:02;;;;;;;26.00;13.90;;;;;;;1.92;93.69;97573.22;102910;1255;109395;-78
2023/01/18 07:28:29;;;;;;;23.50;13.70;;;;;;;1.92;93.46;97579.73;102981;1256;108376;-79
2023/01/18 07:30:56;;;;;;;25.20;13.40;;;;;;;1.93;93.53;97585.02;102842;1256;139306;-80
2023/01/18 07:33:24;;;;;;;22.40;12.60;;;;;;;1.94;93.70;97591.80;102974;1255;107878;-80
2023/01/18 07:35:53;;;;;;;22.20;12.50;;;;;;;1.95;93.72;97580.13;102941;1256;138231;-79
2023/01/18 07:38:21;;;;;;;22.20;12.30;;;;;;;1.96;93.67;97569.44;102352;1255;1003513;-79
2023/01/18 07:40:48;;;;;;;22.10;12.60;;;;;;;1.97;93.56;97564.45;102342;1255;1002912;-79
2023/01/18 07:43:16;;;;;;;23.20;13.00;;;;;;;1.98;93.56;97566.45;102114;1256;1003408;-79
2023/01/18 07:45:44;;;;;;;19.30;11.30;;;;;;;1.99;93.50;97558.73;102966;1256;106876;-80
2023/01/18 07:48:12;;;;;;;21.20;11.90;;;;;;;2.00;93.55;97561.41;102823;1260;137911;-78
2023/01/18 07:50:40;;;;;;;20.80;11.80;;;;;;;2.02;93.61;97559.97;102861;1261;110012;-78
2023/01/18 07:53:08;;;;;;;22.20;12.40;;;;;;;2.03;93.58;97559.23;102983;1260;107285;-78
2023/01/18 07:55:37;;;;;;;21.60;12.40;;;;;;;2.03;93.49;97563.66;103323;1260;96460;-78
2023/01/18 07:58:04;;;;;;;23.70;12.10;;;;;;;2.05;93.58;97563.45;102926;1257;110771;-79
2023/01/18 08:00:32;;;;;;;23.50;12.00;;;;;;;2.06;93.54;97565.27;102751;1256;138072;-79
2023/01/18 08:03:00;;;;;;;21.60;11.50;;;;;;;2.08;93.66;97562.27;102974;1257;109401;-80
2023/01/18 08:05:28;;;;;;;19.40;10.70;;;;;;;2.09;93.65;97556.39;102940;1256;138805;-79
2023/01/18 08:07:56;;;;;;;20.00;11.10;;;;;;;2.10;93.60;97557.39;103046;1257;97097;-79
2023/01/18 08:10:25;;;;;;;18.20;10.90;;;;;;;2.12;93.50;97552.14;103040;1256;107919;-79
2023/01/18 08:12:52;;;;;;;17.50;10.30;;;;;;;2.15;93.60;97542.63;102912;1258;138915;-79
2023/01/18 08:15:19;;;;;;;17.20;10.60;;;;;;;2.16;93.40;97538.31;102923;1259;109698;-79
2023/01/18 08:17:49;;;;;;;16.30;10.10;;;;;;;2.17;93.39;97540.86;102125;1257;1015437;-85
2023/01/18 08:20:19;;;;;;;17.20;9.20;;;;;;;2.17;93.31;97542.04;102235;1260;1002915;-77
2023/01/18 08:22:54;;;;;;;17.60;9.90;;;;;;;2.16;93.32;97549.09;102888;1260;106981;-77
2023/01/18 08:25:21;;;;;;;21.20;12.40;;;;;;;2.18;93.38;97543.35;102892;1257;137843;-76
2023/01/18 08:27:48;;;;;;;16.90;9.70;;;;;;;2.20;93.46;97530.09;103041;1256;109031;-76
2023/01/18 08:30:18;;;;;;;17.70;9.60;;;;;;;2.21;93.23;97520.29;102841;1261;137869;-76
2023/01/18 08:32:45;;;;;;;16.30;8.90;;;;;;;2.22;93.33;97515.41;102405;1256;1003030;-75
2023/01/18 08:35:13;;;;;;;16.00;9.40;;;;;;;2.24;93.51;97511.91;102896;1260;138841;-73
2023/01/18 08:37:40;;;;;;;14.10;8.10;;;;;;;2.24;93.29;97501.80;103022;1257;96464;-75
2023/01/18 08:40:09;;;;;;;13.50;7.80;;;;;;;2.23;93.16;97493.45;102966;1260;108449;-81
2023/01/18 08:42:37;;;;;;;14.00;7.90;;;;;;;2.23;93.36;97492.60;102907;1258;137979;-75
2023/01/18 08:45:04;;;;;;;14.30;8.40;;;;;;;2.24;93.46;97491.33;103063;1257;96477;-76
2023/01/18 08:47:31;;;;;;;12.60;8.50;;;;;;;2.25;93.31;97504.68;102945;1256;138906;-75
2023/01/18 08:49:58;;;;;;;13.40;8.20;;;;;;;2.26;93.48;97519.36;102367;1257;1003064;-76
2023/01/18 08:52:26;;;;;;;14.50;8.70;;;;;;;2.28;93.25;97518.92;103040;1257;110049;-74
2023/01/18 08:54:54;;;;;;;13.20;7.50;;;;;;;2.29;93.29;97516.64;102994;1257;137818;-74
2023/01/18 08:57:22;;;;;;;13.40;8.70;;;;;;;2.28;93.24;97520.80;102351;1257;1002568;-75
2023/01/18 08:59:49;;;;;;;17.10;9.70;;;;;;;2.28;93.17;97527.67;102284;1257;1015517;-74
2023/01/18 09:02:17;;;;;;;15.90;8.80;;;;;;;2.29;93.25;97528.30;103523;1257;95842;-75
2023/01/18 09:04:47;;;;;;;22.10;11.20;;;;;;;2.31;93.27;97530.95;102726;1256;1003671;-74
2023/01/18 09:07:14;;;;;;;14.90;9.00;;;;;;;2.32;93.37;97530.40;103406;1256;139324;-74
2023/01/18 09:09:42;;;;;;;13.50;8.50;;;;;;;2.34;93.28;97526.91;103330;1256;94533;-74
2023/01/18 09:12:10;;;;;;;14.80;8.50;;;;;;;2.35;93.18;97518.98;102249;1257;1003856;-74
2023/01/18 09:14:37;;;;;;;13.20;8.50;;;;;;;2.34;93.02;97519.88;102303;1260;1003521;-74
2023/01/18 09:17:04;;;;;;;14.00;8.50;;;;;;;2.34;93.11;97521.42;103419;1257;109875;-74
2023/01/18 09:19:31;;;;;;;13.10;7.80;;;;;;;2.35;93.01;97510.42;103663;1256;137713;-75
2023/01/18 09:21:59;;;;;;;16.70;9.10;;;;;;;2.35;93.27;97509.73;103243;1258;97104;-74
2023/01/18 09:24:26;;;;;;;14.20;8.20;;;;;;;2.37;93.31;97505.54;103170;1256;137892;-74
2023/01/18 09:26:54;;;;;;;13.60;8.60;;;;;;;2.39;93.29;97494.63;103098;1257;96363;-74
2023/01/18 09:29:21;;;;;;;12.90;8.40;;;;;;;2.41;93.31;97496.77;103199;1255;137752;-74
2023/01/18 09:31:49;;;;;;;11.40;7.60;;;;;;;2.43;93.26;97491.03;103535;1256;107674;-74
2023/01/18 09:34:17;;;;;;;17.20;8.70;;;;;;;2.44;93.25;97484.29;103446;1255;94895;-74
2023/01/18 09:36:46;;;;;;;13.90;7.70;;;;;;;2.47;93.38;97482.45;103142;1255;137813;-74
2023/01/18 09:39:13;;;;;;;11.70;8.00;;;;;;;2.50;93.45;97461.05;103257;1256;96574;-74
2023/01/18 09:41:43;;;;;;;13.00;7.80;;;;;;;2.52;93.30;97446.55;103184;1256;137841;-74
2023/01/18 09:44:21;;;;;;;15.40;8.50;;;;;;;2.54;93.39;97448.88;103208;1260;110062;-74
2023/01/18 09:46:52;;;;;;;14.30;8.20;;;;;;;2.56;93.13;97449.46;102489;1260;1003091;-74
2023/01/18 09:49:27;;;;;;;11.00;8.00;;;;;;;2.59;93.20;97451.23;103093;1256;138209;-73
2023/01/18 09:52:04;;;;;;;13.90;8.50;;;;;;;2.62;93.38;97448.16;103184;1260;96431;-73
2023/01/18 09:54:41;;;;;;;12.80;7.80;;;;;;;2.65;93.22;97439.11;103147;1256;137666;-74
2023/01/18 09:57:17;;;;;;;11.00;7.10;;;;;;;2.64;93.12;97438.96;103639;1256;109363;-74
2023/01/18 09:59:54;;;;;;;10.90;6.90;;;;;;;2.61;92.82;97455.09;103329;1255;138218;-74
2023/01/18 10:02:25;;;;;;;11.40;7.20;;;;;;;2.57;92.70;97459.02;103400;1256;107899;-74
2023/01/18 10:04:59;;;;;;;10.80;7.00;;;;;;;2.55;92.71;97462.23;103726;1256;96467;-73
2023/01/18 10:07:30;;;;;;;10.70;7.10;;;;;;;2.56;92.99;97461.51;103223;1255;138876;-74
2023/01/18 10:10:01;;;;;;;11.50;7.40;;;;;;;2.56;93.13;97461.30;103338;1255;108720;-74
2023/01/18 10:12:37;;;;;;;10.20;6.40;;;;;;;2.55;93.15;97451.40;102366;1256;1002700;-74
2023/01/18 10:15:16;;;;;;;8.90;6.60;;;;;;;2.53;93.03;97438.29;103200;1256;107383;-74
2023/01/18 10:17:45;;;;;;;11.10;7.30;;;;;;;2.53;93.13;97437.44;103269;1255;137869;-75
2023/01/18 10:20:20;;;;;;;10.80;7.10;;;;;;;2.53;93.25;97444.80;102536;1255;1003034;-74
2023/01/18 10:22:53;;;;;;;10.20;7.40;;;;;;;2.53;93.26;97455.79;103434;1256;107737;-74
2023/01/18 10:25:30;;;;;;;11.50;7.10;;;;;;;2.52;93.43;97453.58;103073;1259;1003144;-76
2023/01/18 10:28:16;;;;;;;11.40;7.70;;;;;;;2.53;93.46;97452.55;103199;1256;109004;-76
2023/01/18 10:30:55;;;;;;;10.20;7.30;;;;;;;2.52;93.36;97456.52;103510;1256;137818;-73
2023/01/18 10:33:25;;;;;;;10.30;7.10;;;;;;;2.51;93.33;97449.19;103345;1256;108969;-75
2023/01/18 10:35:57;;;;;;;10.00;6.90;;;;;;;2.49;93.45;97439.63;103120;1256;138254;-75
2023/01/18 10:38:28;;;;;;;9.30;7.10;;;;;;;2.48;93.40;97438.14;103324;1255;96380;-76
2023/01/18 10:40:59;;;;;;;10.50;7.50;;;;;;;2.47;93.36;97428.27;103258;1256;107310;-75
2023/01/18 10:43:28;;;;;;;11.50;8.00;;;;;;;2.44;93.18;97414.33;103038;1260;137771;-75
2023/01/18 10:45:56;;;;;;;11.70;8.00;;;;;;;2.42;93.51;97409.11;103315;1255;109912;-74
2023/01/18 10:48:29;;;;;;;11.50;8.20;;;;;;;2.40;93.50;97416.20;102605;1260;1003013;-74
2023/01/18 10:50:59;;;;;;;11.30;7.90;;;;;;;2.39;93.54;97426.22;102512;1260;1002457;-74
2023/01/18 10:53:32;;;;;;;10.40;7.40;;;;;;;2.38;93.65;97432.75;103263;1260;138409;-75
2023/01/18 10:56:03;;;;;;;12.00;7.40;;;;;;;2.38;93.70;97428.46;103382;1255;96446;-74
2023/01/18 10:58:34;;;;;;;11.80;7.50;;;;;;;2.39;93.90;97423.14;102531;1260;1003735;-74
2023/01/18 11:01:03;;;;;;;9.40;7.30;;;;;;;2.37;93.77;97414.83;103357;1256;138054;-74
2023/01/18 11:03:36;;;;;;;10.40;7.50;;;;;;;2.37;93.88;97410.19;103248;1260;96954;-74
2023/01/18 11:06:07;;;;;;;11.70;8.20;;;;;;;2.38;93.96;97404.66;103069;1255;137849;-75
2023/01/18 11:08:35;;;;;;;10.60;7.90;;;;;;;2.37;93.81;97397.82;103190;1256;96443;-74
2023/01/18 11:11:06;;;;;;;10.30;7.90;;;;;;;2.37;94.02;97399.02;102425;1255;1003593;-74
2023/01/18 11:13:41;;;;;;;10.80;7.70;;;;;;;2.37;93.92;97401.79;103229;1256;107784;-74
2023/01/18 11:16:12;;;;;;;9.10;7.20;;;;;;;2.36;93.81;97398.41;103495;1256;96546;-74
2023/01/18 11:18:54;;;;;;;10.90;7.70;;;;;;;2.35;93.80;97396.58;103190;1257;137555;-74
2023/01/18 11:21:22;;;;;;;10.80;7.30;;;;;;;2.35;94.07;97395.70;103459;1257;94950;-75
2023/01/18 11:23:51;;;;;;;12.90;7.60;;;;;;;2.37;94.25;97392.34;102893;1256;137867;-74
2023/01/18 11:26:21;;;;;;;10.80;7.40;;;;;;;2.41;94.11;97392.70;103103;1255;107886;-74
2023/01/18 11:28:55;;;;;;;8.70;7.20;;;;;;;2.44;94.26;97395.80;103319;1255;97025;-74
2023/01/18 11:31:26;;;;;;;10.60;7.70;;;;;;;2.47;94.16;97397.57;103025;1258;137729;-75
2023/01/18 11:33:56;;;;;;;9.60;7.00;;;;;;;2.48;94.06;97398.53;103025;1256;96470;-74
2023/01/18 11:36:37;;;;;;;10.40;7.60;;;;;;;2.49;93.86;97396.27;103161;1256;137848;-74
2023/01/18 11:39:19;;;;;;;9.70;7.20;;;;;;;2.51;93.95;97397.90;103244;1256;106877;-75
2023/01/18 11:41:47;;;;;;;10.20;6.90;;;;;;;2.52;93.86;97394.76;102988;1258;138047;-75
2023/01/18 11:44:22;;;;;;;10.00;7.60;;;;;;;2.52;93.72;97395.98;102164;1257;1003125;-75
2023/01/18 11:46:53;;;;;;;9.50;7.30;;;;;;;2.53;93.74;97391.80;103068;1257;96471;-76
2023/01/18 11:49:34;;;;;;;10.70;6.60;;;;;;;2.55;93.65;97393.62;102926;1260;137646;-75
2023/01/18 11:52:05;;;;;;;9.60;6.90;;;;;;;2.57;93.53;97395.42;102269;1260;1002264;-75
2023/01/18 11:54:39;;;;;;;8.90;6.90;;;;;;;2.58;93.48;97398.10;102944;1257;139138;-75
2023/01/18 11:57:09;;;;;;;9.60;7.30;;;;;;;2.61;93.59;97398.98;103153;1256;106680;-75
2023/01/18 11:59:41;;;;;;;9.40;7.00;;;;;;;2.64;93.48;97400.70;102307;1255;1003645;-75
2023/01/18 12:02:39;;;;;;;9.30;6.70;;;;;;;2.67;93.76;97394.55;103125;1256;109718;-76